Terminal Aerodrome Forecast
Issued by NWS

Home | Current Version | Previous Version | Text Only | Print | Product List | Glossary On
Versions: 1 2 3 4 5 6 7 8 9 10 11 12 13
488
FTUS42 KMLB 121901 AAA
TAFISM
TAF AMD
KISM 121901Z 1219/1318 29014G22KT P6SM SCT050 BKN250
     FM130000 29011KT P6SM SKC
     FM130600 32008KT P6SM SKC=

USA.gov is the U.S. government's official web portal to all federal, state and local government web resources and services.